sensor_id;sensor_type;location;lat;lon;timestamp;P1;durP1;ratioP1;P2;durP2;ratioP2
35540;SDS011;21650;48.840;9.162;2023-05-21T00:01:24;21.10;;;14.40;;
35540;SDS011;21650;48.840;9.162;2023-05-21T00:03:50;18.57;;;14.07;;
35540;SDS011;21650;48.840;9.162;2023-05-21T00:06:15;17.77;;;13.40;;
35540;SDS011;21650;48.840;9.162;2023-05-21T00:08:41;19.60;;;14.07;;
35540;SDS011;21650;48.840;9.162;2023-05-21T00:11:07;18.70;;;13.53;;
35540;SDS011;21650;48.840;9.162;2023-05-21T00:13:33;19.30;;;14.57;;
35540;SDS011;21650;48.840;9.162;2023-05-21T00:15:59;16.97;;;13.53;;
35540;SDS011;21650;48.840;9.162;2023-05-21T00:18:24;15.20;;;13.03;;
35540;SDS011;21650;48.840;9.162;2023-05-21T00:20:50;18.93;;;14.13;;
35540;SDS011;21650;48.840;9.162;2023-05-21T00:23:17;16.53;;;14.03;;
35540;SDS011;21650;48.840;9.162;2023-05-21T00:25:43;17.90;;;13.70;;
35540;SDS011;21650;48.840;9.162;2023-05-21T00:28:09;19.63;;;13.83;;
35540;SDS011;21650;48.840;9.162;2023-05-21T00:30:35;18.17;;;13.47;;
35540;SDS011;21650;48.840;9.162;2023-05-21T00:33:01;20.37;;;14.33;;
35540;SDS011;21650;48.840;9.162;2023-05-21T00:35:27;17.80;;;14.00;;
35540;SDS011;21650;48.840;9.162;2023-05-21T00:37:53;19.23;;;13.67;;
35540;SDS011;21650;48.840;9.162;2023-05-21T00:40:19;17.47;;;12.90;;
35540;SDS011;21650;48.840;9.162;2023-05-21T00:42:45;18.87;;;14.97;;
35540;SDS011;21650;48.840;9.162;2023-05-21T00:45:12;18.37;;;14.17;;
35540;SDS011;21650;48.840;9.162;2023-05-21T00:47:41;18.83;;;13.63;;
35540;SDS011;21650;48.840;9.162;2023-05-21T00:50:08;20.57;;;14.77;;
35540;SDS011;21650;48.840;9.162;2023-05-21T00:52:34;18.50;;;14.07;;
35540;SDS011;21650;48.840;9.162;2023-05-21T00:55:05;21.53;;;14.97;;
35540;SDS011;21650;48.840;9.162;2023-05-21T00:57:32;17.70;;;14.30;;
35540;SDS011;21650;48.840;9.162;2023-05-21T01:00:01;24.20;;;14.50;;
35540;SDS011;21650;48.840;9.162;2023-05-21T01:02:28;18.20;;;14.40;;
35540;SDS011;21650;48.840;9.162;2023-05-21T01:04:58;18.27;;;14.07;;
35540;SDS011;21650;48.840;9.162;2023-05-21T01:07:24;20.80;;;14.90;;
35540;SDS011;21650;48.840;9.162;2023-05-21T01:09:50;19.67;;;15.60;;
35540;SDS011;21650;48.840;9.162;2023-05-21T01:12:16;20.13;;;14.17;;
35540;SDS011;21650;48.840;9.162;2023-05-21T01:14:42;19.33;;;14.83;;
35540;SDS011;21650;48.840;9.162;2023-05-21T01:17:09;20.80;;;15.43;;
35540;SDS011;21650;48.840;9.162;2023-05-21T01:19:35;19.43;;;14.67;;
35540;SDS011;21650;48.840;9.162;2023-05-21T01:22:07;20.13;;;15.77;;
35540;SDS011;21650;48.840;9.162;2023-05-21T01:24:32;21.53;;;14.97;;
35540;SDS011;21650;48.840;9.162;2023-05-21T01:26:59;18.37;;;14.20;;
35540;SDS011;21650;48.840;9.162;2023-05-21T01:29:27;18.10;;;13.90;;
35540;SDS011;21650;48.840;9.162;2023-05-21T01:34:55;19.80;;;14.63;;
35540;SDS011;21650;48.840;9.162;2023-05-21T01:37:34;19.23;;;14.77;;
35540;SDS011;21650;48.840;9.162;2023-05-21T01:40:13;17.70;;;13.93;;
35540;SDS011;21650;48.840;9.162;2023-05-21T01:42:58;23.83;;;15.63;;
35540;SDS011;21650;48.840;9.162;2023-05-21T01:45:25;22.33;;;15.73;;
35540;SDS011;21650;48.840;9.162;2023-05-21T01:47:53;18.53;;;15.03;;
35540;SDS011;21650;48.840;9.162;2023-05-21T01:50:20;19.00;;;15.43;;
35540;SDS011;21650;48.840;9.162;2023-05-21T01:52:50;25.67;;;16.50;;
35540;SDS011;21650;48.840;9.162;2023-05-21T01:55:17;21.47;;;16.00;;
35540;SDS011;21650;48.840;9.162;2023-05-21T01:57:48;20.40;;;16.33;;
35540;SDS011;21650;48.840;9.162;2023-05-21T02:00:18;23.93;;;16.93;;
35540;SDS011;21650;48.840;9.162;2023-05-21T02:02:44;25.30;;;16.80;;
35540;SDS011;21650;48.840;9.162;2023-05-21T02:05:10;22.47;;;15.67;;
35540;SDS011;21650;48.840;9.162;2023-05-21T02:07:36;20.53;;;15.30;;
35540;SDS011;21650;48.840;9.162;2023-05-21T02:10:01;22.37;;;16.00;;
35540;SDS011;21650;48.840;9.162;2023-05-21T02:12:27;22.10;;;16.33;;
35540;SDS011;21650;48.840;9.162;2023-05-21T02:14:53;21.17;;;16.43;;
35540;SDS011;21650;48.840;9.162;2023-05-21T02:17:19;22.93;;;15.17;;
35540;SDS011;21650;48.840;9.162;2023-05-21T02:19:45;20.93;;;15.00;;
35540;SDS011;21650;48.840;9.162;2023-05-21T02:22:11;19.50;;;15.47;;
35540;SDS011;21650;48.840;9.162;2023-05-21T02:24:36;21.00;;;16.60;;
35540;SDS011;21650;48.840;9.162;2023-05-21T02:27:02;21.83;;;15.33;;
35540;SDS011;21650;48.840;9.162;2023-05-21T02:29:30;20.67;;;15.63;;
35540;SDS011;21650;48.840;9.162;2023-05-21T02:31:56;22.67;;;16.73;;
35540;SDS011;21650;48.840;9.162;2023-05-21T02:34:21;22.83;;;16.00;;
35540;SDS011;21650;48.840;9.162;2023-05-21T02:36:48;22.50;;;16.67;;
35540;SDS011;21650;48.840;9.162;2023-05-21T02:39:16;23.70;;;16.03;;
35540;SDS011;21650;48.840;9.162;2023-05-21T02:41:45;21.90;;;16.37;;
35540;SDS011;21650;48.840;9.162;2023-05-21T02:44:11;20.97;;;15.63;;
35540;SDS011;21650;48.840;9.162;2023-05-21T02:46:37;22.07;;;16.13;;
35540;SDS011;21650;48.840;9.162;2023-05-21T02:49:02;24.17;;;17.33;;
35540;SDS011;21650;48.840;9.162;2023-05-21T02:51:28;23.33;;;16.83;;
35540;SDS011;21650;48.840;9.162;2023-05-21T02:53:53;22.37;;;15.53;;
35540;SDS011;21650;48.840;9.162;2023-05-21T02:56:19;20.90;;;16.80;;
35540;SDS011;21650;48.840;9.162;2023-05-21T02:58:44;23.00;;;16.27;;
35540;SDS011;21650;48.840;9.162;2023-05-21T03:01:10;20.57;;;16.33;;
35540;SDS011;21650;48.840;9.162;2023-05-21T03:03:36;22.77;;;16.37;;
35540;SDS011;21650;48.840;9.162;2023-05-21T03:06:01;24.57;;;17.07;;
35540;SDS011;21650;48.840;9.162;2023-05-21T03:08:27;24.10;;;16.43;;
35540;SDS011;21650;48.840;9.162;2023-05-21T03:10:53;21.40;;;16.17;;
35540;SDS011;21650;48.840;9.162;2023-05-21T03:13:19;22.97;;;17.03;;
35540;SDS011;21650;48.840;9.162;2023-05-21T03:15:45;20.83;;;15.73;;
35540;SDS011;21650;48.840;9.162;2023-05-21T03:18:10;18.70;;;15.37;;
35540;SDS011;21650;48.840;9.162;2023-05-21T03:20:37;20.00;;;15.27;;
35540;SDS011;21650;48.840;9.162;2023-05-21T03:23:07;24.63;;;16.43;;
35540;SDS011;21650;48.840;9.162;2023-05-21T03:25:33;20.00;;;16.20;;
35540;SDS011;21650;48.840;9.162;2023-05-21T03:28:00;24.23;;;16.17;;
35540;SDS011;21650;48.840;9.162;2023-05-21T03:30:26;20.17;;;15.53;;
35540;SDS011;21650;48.840;9.162;2023-05-21T03:32:51;20.53;;;15.90;;
35540;SDS011;21650;48.840;9.162;2023-05-21T03:35:17;26.90;;;16.70;;
35540;SDS011;21650;48.840;9.162;2023-05-21T03:37:43;19.57;;;14.57;;
35540;SDS011;21650;48.840;9.162;2023-05-21T03:40:08;22.33;;;17.13;;
35540;SDS011;21650;48.840;9.162;2023-05-21T03:42:34;24.63;;;17.97;;
35540;SDS011;21650;48.840;9.162;2023-05-21T03:45:00;22.40;;;16.63;;
35540;SDS011;21650;48.840;9.162;2023-05-21T03:47:26;24.87;;;17.33;;
35540;SDS011;21650;48.840;9.162;2023-05-21T03:49:52;23.67;;;16.33;;
35540;SDS011;21650;48.840;9.162;2023-05-21T03:52:17;20.87;;;15.27;;
35540;SDS011;21650;48.840;9.162;2023-05-21T03:54:43;21.37;;;15.60;;
35540;SDS011;21650;48.840;9.162;2023-05-21T03:57:08;20.83;;;15.47;;
35540;SDS011;21650;48.840;9.162;2023-05-21T03:59:34;18.67;;;15.67;;
35540;SDS011;21650;48.840;9.162;2023-05-21T04:02:00;21.73;;;15.23;;
35540;SDS011;21650;48.840;9.162;2023-05-21T04:04:25;20.20;;;15.07;;
35540;SDS011;21650;48.840;9.162;2023-05-21T04:06:53;19.63;;;15.67;;
35540;SDS011;21650;48.840;9.162;2023-05-21T04:09:19;25.40;;;17.30;;
35540;SDS011;21650;48.840;9.162;2023-05-21T04:11:45;20.90;;;16.00;;
35540;SDS011;21650;48.840;9.162;2023-05-21T04:14:11;23.07;;;16.67;;
35540;SDS011;21650;48.840;9.162;2023-05-21T04:16:37;23.73;;;17.20;;
35540;SDS011;21650;48.840;9.162;2023-05-21T04:19:03;26.93;;;18.00;;
35540;SDS011;21650;48.840;9.162;2023-05-21T04:21:30;22.23;;;16.77;;
35540;SDS011;21650;48.840;9.162;2023-05-21T04:23:56;25.10;;;18.13;;
35540;SDS011;21650;48.840;9.162;2023-05-21T04:26:22;23.83;;;17.13;;
35540;SDS011;21650;48.840;9.162;2023-05-21T04:28:49;27.07;;;17.73;;
35540;SDS011;21650;48.840;9.162;2023-05-21T04:31:15;22.23;;;16.77;;
35540;SDS011;21650;48.840;9.162;2023-05-21T04:33:40;25.87;;;17.60;;
35540;SDS011;21650;48.840;9.162;2023-05-21T04:36:09;22.97;;;17.13;;
35540;SDS011;21650;48.840;9.162;2023-05-21T04:38:36;21.37;;;16.67;;
35540;SDS011;21650;48.840;9.162;2023-05-21T04:41:02;25.83;;;16.33;;
35540;SDS011;21650;48.840;9.162;2023-05-21T04:43:28;22.50;;;16.80;;
35540;SDS011;21650;48.840;9.162;2023-05-21T04:45:54;22.03;;;16.47;;
35540;SDS011;21650;48.840;9.162;2023-05-21T04:48:20;24.37;;;16.70;;
35540;SDS011;21650;48.840;9.162;2023-05-21T04:50:50;23.50;;;16.97;;
35540;SDS011;21650;48.840;9.162;2023-05-21T04:53:17;22.23;;;17.30;;
35540;SDS011;21650;48.840;9.162;2023-05-21T04:55:43;19.93;;;15.40;;
35540;SDS011;21650;48.840;9.162;2023-05-21T04:58:08;24.40;;;17.97;;
35540;SDS011;21650;48.840;9.162;2023-05-21T05:00:37;22.67;;;16.13;;
35540;SDS011;21650;48.840;9.162;2023-05-21T05:03:03;27.83;;;17.53;;
35540;SDS011;21650;48.840;9.162;2023-05-21T05:07:57;21.83;;;17.60;;
35540;SDS011;21650;48.840;9.162;2023-05-21T05:10:22;21.83;;;17.30;;
35540;SDS011;21650;48.840;9.162;2023-05-21T05:12:48;23.00;;;17.37;;
35540;SDS011;21650;48.840;9.162;2023-05-21T05:15:13;24.67;;;17.37;;
35540;SDS011;21650;48.840;9.162;2023-05-21T05:17:40;25.10;;;17.17;;
35540;SDS011;21650;48.840;9.162;2023-05-21T05:20:08;28.40;;;18.10;;
35540;SDS011;21650;48.840;9.162;2023-05-21T05:22:35;26.63;;;18.20;;
35540;SDS011;21650;48.840;9.162;2023-05-21T05:25:00;24.23;;;17.37;;
35540;SDS011;21650;48.840;9.162;2023-05-21T05:27:26;22.83;;;17.70;;
35540;SDS011;21650;48.840;9.162;2023-05-21T05:29:51;22.87;;;17.13;;
35540;SDS011;21650;48.840;9.162;2023-05-21T05:32:17;27.70;;;18.53;;
35540;SDS011;21650;48.840;9.162;2023-05-21T05:34:44;27.33;;;19.07;;
35540;SDS011;21650;48.840;9.162;2023-05-21T05:37:10;24.13;;;17.63;;
35540;SDS011;21650;48.840;9.162;2023-05-21T05:39:36;26.17;;;18.70;;
35540;SDS011;21650;48.840;9.162;2023-05-21T05:42:01;24.40;;;17.70;;
35540;SDS011;21650;48.840;9.162;2023-05-21T05:44:27;21.70;;;16.57;;
35540;SDS011;21650;48.840;9.162;2023-05-21T05:46:53;30.10;;;19.87;;
35540;SDS011;21650;48.840;9.162;2023-05-21T05:49:18;23.77;;;17.37;;
35540;SDS011;21650;48.840;9.162;2023-05-21T05:51:44;25.27;;;17.30;;
35540;SDS011;21650;48.840;9.162;2023-05-21T05:54:10;25.30;;;18.37;;
35540;SDS011;21650;48.840;9.162;2023-05-21T05:56:35;25.50;;;17.60;;
35540;SDS011;21650;48.840;9.162;2023-05-21T05:59:01;24.13;;;17.93;;
35540;SDS011;21650;48.840;9.162;2023-05-21T06:01:26;24.93;;;16.47;;
35540;SDS011;21650;48.840;9.162;2023-05-21T06:03:52;25.07;;;18.50;;
35540;SDS011;21650;48.840;9.162;2023-05-21T06:06:17;22.93;;;18.27;;
35540;SDS011;21650;48.840;9.162;2023-05-21T06:08:43;26.60;;;18.57;;
35540;SDS011;21650;48.840;9.162;2023-05-21T06:11:09;24.67;;;17.67;;
35540;SDS011;21650;48.840;9.162;2023-05-21T06:13:35;22.03;;;17.33;;
35540;SDS011;21650;48.840;9.162;2023-05-21T06:16:01;24.20;;;17.87;;
35540;SDS011;21650;48.840;9.162;2023-05-21T06:18:27;25.03;;;18.20;;
35540;SDS011;21650;48.840;9.162;2023-05-21T06:20:52;23.73;;;18.30;;
35540;SDS011;21650;48.840;9.162;2023-05-21T06:23:18;24.53;;;17.40;;
35540;SDS011;21650;48.840;9.162;2023-05-21T06:25:43;22.93;;;18.47;;
35540;SDS011;21650;48.840;9.162;2023-05-21T06:28:09;24.03;;;18.07;;
35540;SDS011;21650;48.840;9.162;2023-05-21T06:30:36;25.93;;;18.10;;
35540;SDS011;21650;48.840;9.162;2023-05-21T06:33:01;25.27;;;17.80;;
35540;SDS011;21650;48.840;9.162;2023-05-21T06:35:27;24.67;;;18.27;;
35540;SDS011;21650;48.840;9.162;2023-05-21T06:37:52;23.20;;;16.63;;
35540;SDS011;21650;48.840;9.162;2023-05-21T06:40:18;21.63;;;16.57;;
35540;SDS011;21650;48.840;9.162;2023-05-21T06:42:44;22.43;;;16.23;;
35540;SDS011;21650;48.840;9.162;2023-05-21T06:45:10;26.30;;;17.23;;
35540;SDS011;21650;48.840;9.162;2023-05-21T06:47:36;24.73;;;17.60;;
35540;SDS011;21650;48.840;9.162;2023-05-21T06:50:01;26.30;;;18.47;;
35540;SDS011;21650;48.840;9.162;2023-05-21T06:52:27;23.63;;;17.47;;
35540;SDS011;21650;48.840;9.162;2023-05-21T06:54:53;23.13;;;16.33;;
35540;SDS011;21650;48.840;9.162;2023-05-21T06:57:18;25.37;;;17.73;;
35540;SDS011;21650;48.840;9.162;2023-05-21T06:59:44;21.80;;;17.07;;
35540;SDS011;21650;48.840;9.162;2023-05-21T07:02:09;20.23;;;16.53;;
35540;SDS011;21650;48.840;9.162;2023-05-21T07:04:35;24.63;;;15.77;;
35540;SDS011;21650;48.840;9.162;2023-05-21T07:07:01;21.53;;;16.27;;
35540;SDS011;21650;48.840;9.162;2023-05-21T07:09:29;21.03;;;15.67;;
35540;SDS011;21650;48.840;9.162;2023-05-21T07:11:54;18.70;;;14.97;;
35540;SDS011;21650;48.840;9.162;2023-05-21T07:14:20;21.43;;;15.67;;
35540;SDS011;21650;48.840;9.162;2023-05-21T07:16:46;23.10;;;16.47;;
35540;SDS011;21650;48.840;9.162;2023-05-21T07:19:11;20.00;;;15.27;;
35540;SDS011;21650;48.840;9.162;2023-05-21T07:21:38;20.30;;;16.23;;
35540;SDS011;21650;48.840;9.162;2023-05-21T07:24:04;19.20;;;14.47;;
35540;SDS011;21650;48.840;9.162;2023-05-21T07:26:30;18.77;;;13.83;;
35540;SDS011;21650;48.840;9.162;2023-05-21T07:28:55;18.93;;;14.00;;
35540;SDS011;21650;48.840;9.162;2023-05-21T07:31:21;19.33;;;14.27;;
35540;SDS011;21650;48.840;9.162;2023-05-21T07:33:47;17.07;;;13.83;;
35540;SDS011;21650;48.840;9.162;2023-05-21T07:36:12;17.87;;;13.37;;
35540;SDS011;21650;48.840;9.162;2023-05-21T07:38:38;21.47;;;14.63;;
35540;SDS011;21650;48.840;9.162;2023-05-21T07:41:04;18.30;;;14.57;;
35540;SDS011;21650;48.840;9.162;2023-05-21T07:43:30;18.80;;;14.03;;
35540;SDS011;21650;48.840;9.162;2023-05-21T07:45:55;20.73;;;13.97;;
35540;SDS011;21650;48.840;9.162;2023-05-21T07:48:21;18.70;;;14.10;;
35540;SDS011;21650;48.840;9.162;2023-05-21T07:50:47;16.33;;;13.03;;
35540;SDS011;21650;48.840;9.162;2023-05-21T07:53:13;20.10;;;13.33;;
35540;SDS011;21650;48.840;9.162;2023-05-21T07:55:39;16.63;;;13.40;;
35540;SDS011;21650;48.840;9.162;2023-05-21T07:58:12;16.20;;;13.23;;
35540;SDS011;21650;48.840;9.162;2023-05-21T08:00:42;17.87;;;12.53;;
35540;SDS011;21650;48.840;9.162;2023-05-21T08:03:09;18.63;;;12.87;;
35540;SDS011;21650;48.840;9.162;2023-05-21T08:05:36;14.80;;;11.93;;
35540;SDS011;21650;48.840;9.162;2023-05-21T08:08:02;13.63;;;10.77;;
35540;SDS011;21650;48.840;9.162;2023-05-21T08:10:29;14.33;;;11.00;;
35540;SDS011;21650;48.840;9.162;2023-05-21T08:12:54;15.50;;;11.27;;
35540;SDS011;21650;48.840;9.162;2023-05-21T08:15:20;18.97;;;12.17;;
35540;SDS011;21650;48.840;9.162;2023-05-21T08:17:46;12.90;;;11.03;;
35540;SDS011;21650;48.840;9.162;2023-05-21T08:20:13;14.80;;;11.37;;
35540;SDS011;21650;48.840;9.162;2023-05-21T08:22:39;13.67;;;11.10;;
35540;SDS011;21650;48.840;9.162;2023-05-21T08:25:05;17.03;;;12.73;;
35540;SDS011;21650;48.840;9.162;2023-05-21T08:27:32;15.73;;;11.57;;
35540;SDS011;21650;48.840;9.162;2023-05-21T08:29:57;12.53;;;10.93;;
35540;SDS011;21650;48.840;9.162;2023-05-21T08:32:23;13.93;;;11.40;;
35540;SDS011;21650;48.840;9.162;2023-05-21T08:34:48;15.00;;;10.53;;
35540;SDS011;21650;48.840;9.162;2023-05-21T08:37:14;13.97;;;11.43;;
35540;SDS011;21650;48.840;9.162;2023-05-21T08:39:39;12.17;;;9.67;;
35540;SDS011;21650;48.840;9.162;2023-05-21T08:42:08;12.83;;;10.17;;
35540;SDS011;21650;48.840;9.162;2023-05-21T08:44:43;15.13;;;11.50;;
35540;SDS011;21650;48.840;9.162;2023-05-21T08:47:14;15.70;;;10.73;;
35540;SDS011;21650;48.840;9.162;2023-05-21T08:49:42;15.00;;;11.40;;
35540;SDS011;21650;48.840;9.162;2023-05-21T08:52:09;13.97;;;11.37;;
35540;SDS011;21650;48.840;9.162;2023-05-21T08:54:36;14.60;;;11.70;;
35540;SDS011;21650;48.840;9.162;2023-05-21T08:57:03;14.50;;;12.00;;
35540;SDS011;21650;48.840;9.162;2023-05-21T08:59:29;13.33;;;10.80;;
35540;SDS011;21650;48.840;9.162;2023-05-21T09:01:55;14.97;;;11.10;;
35540;SDS011;21650;48.840;9.162;2023-05-21T09:04:22;15.37;;;11.70;;
35540;SDS011;21650;48.840;9.162;2023-05-21T09:06:47;12.03;;;10.20;;
35540;SDS011;21650;48.840;9.162;2023-05-21T09:09:19;11.80;;;10.30;;
35540;SDS011;21650;48.840;9.162;2023-05-21T09:11:58;11.67;;;10.13;;
35540;SDS011;21650;48.840;9.162;2023-05-21T09:14:23;13.63;;;10.13;;
35540;SDS011;21650;48.840;9.162;2023-05-21T09:16:50;14.53;;;10.00;;
35540;SDS011;21650;48.840;9.162;2023-05-21T09:19:18;13.77;;;9.77;;
35540;SDS011;21650;48.840;9.162;2023-05-21T09:21:45;14.27;;;10.43;;
35540;SDS011;21650;48.840;9.162;2023-05-21T09:24:11;13.90;;;10.37;;
35540;SDS011;21650;48.840;9.162;2023-05-21T09:26:41;12.10;;;9.33;;
35540;SDS011;21650;48.840;9.162;2023-05-21T09:29:07;13.40;;;10.57;;
35540;SDS011;21650;48.840;9.162;2023-05-21T09:31:32;12.43;;;10.47;;
35540;SDS011;21650;48.840;9.162;2023-05-21T09:33:58;13.40;;;10.07;;
35540;SDS011;21650;48.840;9.162;2023-05-21T09:36:24;11.97;;;10.13;;
35540;SDS011;21650;48.840;9.162;2023-05-21T09:38:53;11.33;;;9.47;;
35540;SDS011;21650;48.840;9.162;2023-05-21T09:41:18;10.90;;;9.70;;
35540;SDS011;21650;48.840;9.162;2023-05-21T09:43:45;12.57;;;10.40;;
35540;SDS011;21650;48.840;9.162;2023-05-21T09:46:11;11.30;;;10.10;;
35540;SDS011;21650;48.840;9.162;2023-05-21T09:48:46;13.23;;;10.67;;
35540;SDS011;21650;48.840;9.162;2023-05-21T09:51:15;13.47;;;9.83;;
35540;SDS011;21650;48.840;9.162;2023-05-21T09:53:42;14.07;;;10.67;;
35540;SDS011;21650;48.840;9.162;2023-05-21T09:56:19;11.93;;;10.27;;
35540;SDS011;21650;48.840;9.162;2023-05-21T09:58:55;13.83;;;9.87;;
35540;SDS011;21650;48.840;9.162;2023-05-21T10:01:22;11.17;;;8.70;;
35540;SDS011;21650;48.840;9.162;2023-05-21T10:03:55;13.73;;;9.50;;
35540;SDS011;21650;48.840;9.162;2023-05-21T10:06:29;11.97;;;9.67;;
35540;SDS011;21650;48.840;9.162;2023-05-21T10:08:56;10.67;;;8.90;;
35540;SDS011;21650;48.840;9.162;2023-05-21T10:11:25;13.30;;;9.53;;
35540;SDS011;21650;48.840;9.162;2023-05-21T10:13:55;12.30;;;9.73;;
35540;SDS011;21650;48.840;9.162;2023-05-21T10:16:24;11.77;;;10.20;;
35540;SDS011;21650;48.840;9.162;2023-05-21T10:18:52;11.57;;;9.17;;
35540;SDS011;21650;48.840;9.162;2023-05-21T10:21:20;12.53;;;9.40;;
35540;SDS011;21650;48.840;9.162;2023-05-21T10:23:46;10.10;;;8.77;;
35540;SDS011;21650;48.840;9.162;2023-05-21T10:26:13;12.37;;;8.83;;
35540;SDS011;21650;48.840;9.162;2023-05-21T10:28:40;12.00;;;9.20;;
35540;SDS011;21650;48.840;9.162;2023-05-21T10:31:07;18.93;;;9.93;;
35540;SDS011;21650;48.840;9.162;2023-05-21T10:33:33;10.70;;;9.60;;
35540;SDS011;21650;48.840;9.162;2023-05-21T10:35:59;11.77;;;9.20;;
35540;SDS011;21650;48.840;9.162;2023-05-21T10:38:26;10.13;;;8.77;;
35540;SDS011;21650;48.840;9.162;2023-05-21T10:40:52;10.07;;;8.53;;
35540;SDS011;21650;48.840;9.162;2023-05-21T10:43:24;10.63;;;8.53;;
35540;SDS011;21650;48.840;9.162;2023-05-21T10:49:09;10.63;;;7.73;;
35540;SDS011;21650;48.840;9.162;2023-05-21T10:51:51;9.68;;;7.18;;
35540;SDS011;21650;48.840;9.162;2023-05-21T10:57:33;9.37;;;8.23;;
35540;SDS011;21650;48.840;9.162;2023-05-21T11:00:04;11.37;;;8.37;;
35540;SDS011;21650;48.840;9.162;2023-05-21T11:02:32;8.80;;;7.90;;
35540;SDS011;21650;48.840;9.162;2023-05-21T11:04:58;9.70;;;7.93;;
35540;SDS011;21650;48.840;9.162;2023-05-21T11:13:21;9.40;;;7.47;;
35540;SDS011;21650;48.840;9.162;2023-05-21T11:16:01;8.23;;;7.43;;
35540;SDS011;21650;48.840;9.162;2023-05-21T11:26:15;7.28;;;6.50;;
35540;SDS011;21650;48.840;9.162;2023-05-21T11:28:45;8.25;;;7.28;;
35540;SDS011;21650;48.840;9.162;2023-05-21T11:31:21;9.05;;;7.43;;
35540;SDS011;21650;48.840;9.162;2023-05-21T11:36:42;8.80;;;7.90;;
35540;SDS011;21650;48.840;9.162;2023-05-21T11:39:10;8.57;;;7.68;;
35540;SDS011;21650;48.840;9.162;2023-05-21T11:41:51;10.48;;;8.02;;
35540;SDS011;21650;48.840;9.162;2023-05-21T11:47:17;11.18;;;7.40;;
35540;SDS011;21650;48.840;9.162;2023-05-21T11:49:44;9.52;;;7.70;;
35540;SDS011;21650;48.840;9.162;2023-05-21T11:52:10;9.43;;;8.18;;
35540;SDS011;21650;48.840;9.162;2023-05-21T11:54:44;8.25;;;7.32;;
35540;SDS011;21650;48.840;9.162;2023-05-21T11:57:12;9.55;;;7.50;;
35540;SDS011;21650;48.840;9.162;2023-05-21T11:59:42;8.98;;;7.35;;
35540;SDS011;21650;48.840;9.162;2023-05-21T12:02:14;10.23;;;7.38;;
35540;SDS011;21650;48.840;9.162;2023-05-21T12:04:48;12.10;;;8.63;;
35540;SDS011;21650;48.840;9.162;2023-05-21T12:07:16;12.80;;;7.38;;
35540;SDS011;21650;48.840;9.162;2023-05-21T12:09:49;11.00;;;7.60;;
35540;SDS011;21650;48.840;9.162;2023-05-21T12:12:16;8.82;;;7.55;;
35540;SDS011;21650;48.840;9.162;2023-05-21T12:14:43;10.27;;;7.68;;
35540;SDS011;21650;48.840;9.162;2023-05-21T12:17:10;8.13;;;7.32;;
35540;SDS011;21650;48.840;9.162;2023-05-21T12:19:37;10.05;;;7.57;;
35540;SDS011;21650;48.840;9.162;2023-05-21T12:22:07;9.00;;;7.15;;
35540;SDS011;21650;48.840;9.162;2023-05-21T12:24:34;7.75;;;6.97;;
35540;SDS011;21650;48.840;9.162;2023-05-21T12:27:02;8.18;;;6.22;;
35540;SDS011;21650;48.840;9.162;2023-05-21T12:29:33;8.60;;;6.97;;
35540;SDS011;21650;48.840;9.162;2023-05-21T12:32:03;9.88;;;7.18;;
35540;SDS011;21650;48.840;9.162;2023-05-21T12:34:35;8.85;;;7.60;;
35540;SDS011;21650;48.840;9.162;2023-05-21T12:37:05;9.85;;;6.82;;
35540;SDS011;21650;48.840;9.162;2023-05-21T12:39:32;8.82;;;7.05;;
35540;SDS011;21650;48.840;9.162;2023-05-21T12:42:01;11.55;;;7.38;;
35540;SDS011;21650;48.840;9.162;2023-05-21T12:44:30;7.75;;;6.82;;
35540;SDS011;21650;48.840;9.162;2023-05-21T12:46:55;9.23;;;7.15;;
35540;SDS011;21650;48.840;9.162;2023-05-21T12:49:35;7.95;;;6.50;;
35540;SDS011;21650;48.840;9.162;2023-05-21T12:52:12;7.05;;;6.35;;
35540;SDS011;21650;48.840;9.162;2023-05-21T12:54:43;6.90;;;5.68;;
35540;SDS011;21650;48.840;9.162;2023-05-21T12:57:13;9.57;;;6.93;;
35540;SDS011;21650;48.840;9.162;2023-05-21T13:05:09;7.18;;;5.68;;
35540;SDS011;21650;48.840;9.162;2023-05-21T13:07:41;10.55;;;7.55;;
35540;SDS011;21650;48.840;9.162;2023-05-21T13:10:08;10.18;;;7.00;;
35540;SDS011;21650;48.840;9.162;2023-05-21T13:12:34;7.15;;;6.15;;
35540;SDS011;21650;48.840;9.162;2023-05-21T13:15:00;7.82;;;6.38;;
35540;SDS011;21650;48.840;9.162;2023-05-21T13:17:28;7.35;;;6.43;;
35540;SDS011;21650;48.840;9.162;2023-05-21T13:20:06;10.13;;;6.30;;
35540;SDS011;21650;48.840;9.162;2023-05-21T13:22:37;6.80;;;5.97;;
35540;SDS011;21650;48.840;9.162;2023-05-21T13:25:07;8.30;;;6.55;;
35540;SDS011;21650;48.840;9.162;2023-05-21T13:27:35;7.32;;;6.50;;
35540;SDS011;21650;48.840;9.162;2023-05-21T13:30:00;7.55;;;6.03;;
35540;SDS011;21650;48.840;9.162;2023-05-21T13:32:26;7.50;;;6.22;;
35540;SDS011;21650;48.840;9.162;2023-05-21T13:34:51;7.50;;;6.80;;
35540;SDS011;21650;48.840;9.162;2023-05-21T13:37:17;12.70;;;9.63;;
35540;SDS011;21650;48.840;9.162;2023-05-21T13:39:44;8.10;;;6.53;;
35540;SDS011;21650;48.840;9.162;2023-05-21T13:42:10;13.38;;;10.00;;
35540;SDS011;21650;48.840;9.162;2023-05-21T13:44:36;10.25;;;6.18;;
35540;SDS011;21650;48.840;9.162;2023-05-21T13:47:02;11.02;;;9.73;;
35540;SDS011;21650;48.840;9.162;2023-05-21T13:49:32;10.82;;;8.45;;
35540;SDS011;21650;48.840;9.162;2023-05-21T13:51:58;8.05;;;6.28;;
35540;SDS011;21650;48.840;9.162;2023-05-21T13:54:27;8.05;;;5.75;;
35540;SDS011;21650;48.840;9.162;2023-05-21T13:56:52;7.85;;;5.55;;
35540;SDS011;21650;48.840;9.162;2023-05-21T13:59:19;9.05;;;6.63;;
35540;SDS011;21650;48.840;9.162;2023-05-21T14:01:44;6.20;;;5.00;;
35540;SDS011;21650;48.840;9.162;2023-05-21T14:04:11;6.95;;;5.28;;
35540;SDS011;21650;48.840;9.162;2023-05-21T14:06:37;6.88;;;5.95;;
35540;SDS011;21650;48.840;9.162;2023-05-21T14:09:02;6.07;;;5.35;;
35540;SDS011;21650;48.840;9.162;2023-05-21T14:11:29;6.90;;;5.22;;
35540;SDS011;21650;48.840;9.162;2023-05-21T14:13:55;6.97;;;6.20;;
35540;SDS011;21650;48.840;9.162;2023-05-21T14:16:22;6.78;;;5.35;;
35540;SDS011;21650;48.840;9.162;2023-05-21T14:18:50;6.65;;;5.53;;
35540;SDS011;21650;48.840;9.162;2023-05-21T14:21:15;8.85;;;5.30;;
35540;SDS011;21650;48.840;9.162;2023-05-21T14:23:41;7.22;;;5.10;;
35540;SDS011;21650;48.840;9.162;2023-05-21T14:26:06;7.20;;;5.20;;
35540;SDS011;21650;48.840;9.162;2023-05-21T14:28:32;6.60;;;4.82;;
35540;SDS011;21650;48.840;9.162;2023-05-21T14:30:57;9.95;;;4.65;;
35540;SDS011;21650;48.840;9.162;2023-05-21T14:33:23;5.65;;;4.53;;
35540;SDS011;21650;48.840;9.162;2023-05-21T14:35:48;8.43;;;5.97;;
35540;SDS011;21650;48.840;9.162;2023-05-21T14:38:14;8.20;;;5.18;;
35540;SDS011;21650;48.840;9.162;2023-05-21T14:40:40;6.88;;;5.60;;
35540;SDS011;21650;48.840;9.162;2023-05-21T14:43:05;8.45;;;6.05;;
35540;SDS011;21650;48.840;9.162;2023-05-21T14:45:31;5.95;;;5.35;;
35540;SDS011;21650;48.840;9.162;2023-05-21T14:47:59;4.90;;;3.90;;
35540;SDS011;21650;48.840;9.162;2023-05-21T14:50:32;4.38;;;3.72;;
35540;SDS011;21650;48.840;9.162;2023-05-21T14:53:02;5.10;;;3.80;;
35540;SDS011;21650;48.840;9.162;2023-05-21T14:55:31;6.28;;;4.20;;
35540;SDS011;21650;48.840;9.162;2023-05-21T14:57:58;4.10;;;3.65;;
35540;SDS011;21650;48.840;9.162;2023-05-21T15:00:24;5.15;;;3.85;;
35540;SDS011;21650;48.840;9.162;2023-05-21T15:02:50;7.13;;;4.15;;
35540;SDS011;21650;48.840;9.162;2023-05-21T15:05:16;6.35;;;3.70;;